createdAt,value
2018-07-28T00:00:28.023Z,23.80
2018-07-28T00:00:59.200Z,24.00
2018-07-28T00:01:30.309Z,23.80
2018-07-28T00:02:01.424Z,24.73
2018-07-28T00:02:32.604Z,23.40
2018-07-28T00:03:03.720Z,25.47
2018-07-28T00:03:34.924Z,24.97
2018-07-28T00:04:06.039Z,25.10
2018-07-28T00:04:37.143Z,25.93
2018-07-28T00:05:08.253Z,26.70
2018-07-28T00:05:39.439Z,26.20
2018-07-28T00:06:10.624Z,24.00
2018-07-28T00:06:41.741Z,25.87
2018-07-28T00:07:12.856Z,25.43
2018-07-28T00:07:44.017Z,25.73
2018-07-28T00:08:15.251Z,25.33
2018-07-28T00:08:46.436Z,25.47
2018-07-28T00:09:17.554Z,25.77
2018-07-28T00:09:48.728Z,24.77
2018-07-28T00:10:19.929Z,26.33
2018-07-28T00:10:51.039Z,24.70
2018-07-28T00:11:22.209Z,25.30
2018-07-28T00:11:53.364Z,24.30
2018-07-28T00:12:24.484Z,23.50
2018-07-28T00:12:55.656Z,24.10
2018-07-28T00:13:26.822Z,24.47
2018-07-28T00:13:58.044Z,25.60
2018-07-28T00:14:29.156Z,24.43
2018-07-28T00:15:00.265Z,24.83
2018-07-28T00:15:31.465Z,24.13
2018-07-28T00:16:02.608Z,24.97
2018-07-28T00:16:33.725Z,25.40
2018-07-28T00:17:04.876Z,25.63
2018-07-28T00:17:36.001Z,25.97
2018-07-28T00:18:07.107Z,24.37
2018-07-28T00:18:38.225Z,25.00
2018-07-28T00:19:09.415Z,26.83
2018-07-28T00:19:40.545Z,25.13
2018-07-28T00:20:11.721Z,26.17
2018-07-28T00:20:42.944Z,26.43
2018-07-28T00:21:14.083Z,28.43
2018-07-28T00:21:45.361Z,28.20
2018-07-28T00:22:16.574Z,27.77
2018-07-28T00:22:47.749Z,27.73
2018-07-28T00:23:18.908Z,27.90
2018-07-28T00:23:50.054Z,28.27
2018-07-28T00:24:21.282Z,26.80
2018-07-28T00:24:52.472Z,27.93
2018-07-28T00:25:23.625Z,28.83
2018-07-28T00:25:54.739Z,27.33
2018-07-28T00:26:25.868Z,28.70
2018-07-28T00:26:57.037Z,28.27
2018-07-28T00:27:28.212Z,29.20
2018-07-28T00:27:59.376Z,28.70
2018-07-28T00:28:30.538Z,27.47
2018-07-28T00:29:01.750Z,27.70
2018-07-28T00:29:32.917Z,26.40
2018-07-28T00:30:04.044Z,26.77
2018-07-28T00:30:35.256Z,25.80
2018-07-28T00:31:06.420Z,26.87
2018-07-28T00:31:37.637Z,24.80
2018-07-28T00:32:08.816Z,27.53
2018-07-28T00:32:39.983Z,28.63
2018-07-28T00:33:11.151Z,28.60
2018-07-28T00:33:42.334Z,28.20
2018-07-28T00:34:13.456Z,29.33
2018-07-28T00:34:44.606Z,30.30
2018-07-28T00:35:15.869Z,29.57
2018-07-28T00:35:47.096Z,28.13
2018-07-28T00:36:18.274Z,27.90
2018-07-28T00:36:49.480Z,25.40
2018-07-28T00:37:20.649Z,28.60
2018-07-28T00:37:51.768Z,27.97
2018-07-28T00:38:22.887Z,27.93
2018-07-28T00:38:54.057Z,26.47
2018-07-28T00:39:25.179Z,26.20
2018-07-28T00:39:56.296Z,27.27
2018-07-28T00:40:27.464Z,27.13
2018-07-28T00:40:58.582Z,26.73
2018-07-28T00:41:29.752Z,25.13
2018-07-28T00:42:00.901Z,27.27
2018-07-28T00:42:32.007Z,26.87
2018-07-28T00:43:03.122Z,27.63
2018-07-28T00:43:34.293Z,26.53
2018-07-28T00:44:05.564Z,26.30
2018-07-28T00:44:36.693Z,26.63
2018-07-28T00:45:07.921Z,26.67
2018-07-28T00:45:39.092Z,26.37
2018-07-28T00:46:10.212Z,26.57
2018-07-28T00:46:41.373Z,26.50
2018-07-28T00:47:12.495Z,25.53
2018-07-28T00:47:43.612Z,26.37
2018-07-28T00:48:14.792Z,27.37
2018-07-28T00:48:45.963Z,25.03
2018-07-28T00:49:17.088Z,25.30
2018-07-28T00:49:48.204Z,25.70
2018-07-28T00:50:19.357Z,24.27
2018-07-28T00:50:50.524Z,24.60
2018-07-28T00:51:21.689Z,24.07
2018-07-28T00:51:52.804Z,24.83
2018-07-28T00:52:23.915Z,23.57
2018-07-28T00:52:55.105Z,23.77
2018-07-28T00:53:26.281Z,22.87
2018-07-28T00:53:57.424Z,22.90
2018-07-28T00:54:28.544Z,23.40
2018-07-28T00:54:59.766Z,23.70
2018-07-28T00:55:30.899Z,24.07
2018-07-28T00:56:02.081Z,24.23
2018-07-28T00:56:33.198Z,23.67
2018-07-28T00:57:04.320Z,23.70
2018-07-28T00:57:35.489Z,24.13
2018-07-28T00:58:06.686Z,23.73
2018-07-28T00:58:37.868Z,23.17
2018-07-28T00:59:09.008Z,23.00
2018-07-28T00:59:40.182Z,23.30
2018-07-28T01:00:11.357Z,24.57
2018-07-28T01:00:42.539Z,24.07
2018-07-28T01:01:13.658Z,24.67
2018-07-28T01:01:44.824Z,23.10
2018-07-28T01:02:16.020Z,24.23
2018-07-28T01:02:47.188Z,24.17
2018-07-28T01:03:18.366Z,24.00
2018-07-28T01:03:49.594Z,23.93
2018-07-28T01:04:20.756Z,25.23
2018-07-28T01:04:51.874Z,25.80
2018-07-28T01:05:22.994Z,24.67
2018-07-28T01:05:54.151Z,24.57
2018-07-28T01:06:25.291Z,25.00
2018-07-28T01:06:56.457Z,24.47
2018-07-28T01:07:27.628Z,25.67
2018-07-28T01:07:58.746Z,26.90
2018-07-28T01:08:29.996Z,27.80
2018-07-28T01:09:01.186Z,27.23
2018-07-28T01:09:32.306Z,27.80
2018-07-28T01:10:03.411Z,26.13
2018-07-28T01:10:34.577Z,26.27
2018-07-28T01:11:05.731Z,26.60
2018-07-28T01:11:36.836Z,25.97
2018-07-28T01:12:08.028Z,26.13
2018-07-28T01:12:39.216Z,27.90
2018-07-28T01:13:10.323Z,26.37
2018-07-28T01:13:41.503Z,27.60
2018-07-28T01:14:12.675Z,23.37
2018-07-28T01:14:43.857Z,27.43
2018-07-28T01:15:15.026Z,25.47
2018-07-28T01:15:46.150Z,26.30
2018-07-28T01:16:17.314Z,27.07
2018-07-28T01:16:48.534Z,26.77
2018-07-28T01:17:19.700Z,26.00
2018-07-28T01:17:50.876Z,27.30
2018-07-28T01:18:22.040Z,25.63
2018-07-28T01:18:53.212Z,26.53
2018-07-28T01:19:24.333Z,27.63
2018-07-28T01:19:55.499Z,26.37
2018-07-28T01:20:26.632Z,24.90
2018-07-28T01:20:57.802Z,26.03
2018-07-28T01:21:28.919Z,28.20
2018-07-28T01:22:00.100Z,27.60
2018-07-28T01:22:31.208Z,29.30
2018-07-28T01:23:02.376Z,26.67
2018-07-28T01:23:33.487Z,27.13
2018-07-28T01:24:04.650Z,28.47
2018-07-28T01:24:35.832Z,29.47
2018-07-28T01:25:07.009Z,28.60
2018-07-28T01:25:38.181Z,27.33
2018-07-28T01:26:09.353Z,28.20
2018-07-28T01:26:40.480Z,27.17
2018-07-28T01:27:11.684Z,28.43
2018-07-28T01:27:42.846Z,26.73
2018-07-28T01:28:14.054Z,29.40
2018-07-28T01:28:45.213Z,29.33
2018-07-28T01:29:16.372Z,28.97
2018-07-28T01:29:47.493Z,27.60
2018-07-28T01:30:18.664Z,27.17
2018-07-28T01:30:49.999Z,28.27
2018-07-28T01:31:21.107Z,29.50
2018-07-28T01:31:52.212Z,25.00
2018-07-28T01:32:23.409Z,26.30
2018-07-28T01:32:54.572Z,28.23
2018-07-28T01:33:25.746Z,31.67
2018-07-28T01:33:56.925Z,30.90
2018-07-28T01:34:28.088Z,29.77
2018-07-28T01:34:59.264Z,28.47
2018-07-28T01:35:30.380Z,27.30
2018-07-28T01:36:01.485Z,30.63
2018-07-28T01:36:32.658Z,29.00
2018-07-28T01:37:03.833Z,29.03
2018-07-28T01:37:35.027Z,28.83
2018-07-28T01:38:06.176Z,28.77
2018-07-28T01:38:37.340Z,27.40
2018-07-28T01:39:08.615Z,29.27
2018-07-28T01:39:39.783Z,27.57
2018-07-28T01:40:10.960Z,27.20
2018-07-28T01:40:42.128Z,26.67
2018-07-28T01:41:13.307Z,26.40
2018-07-28T01:41:44.491Z,25.73
2018-07-28T01:42:15.595Z,24.70
2018-07-28T01:42:46.708Z,25.50
2018-07-28T01:43:17.877Z,25.93
2018-07-28T01:43:48.985Z,25.13
2018-07-28T01:44:20.153Z,26.23
2018-07-28T01:44:51.327Z,26.83
2018-07-28T01:45:22.521Z,26.10
2018-07-28T01:45:53.745Z,27.57
2018-07-28T01:46:24.963Z,27.00
2018-07-28T01:46:56.144Z,23.53
2018-07-28T01:47:27.372Z,28.17
2018-07-28T01:47:58.552Z,27.03
2018-07-28T01:48:29.775Z,26.23
2018-07-28T01:49:00.899Z,24.47
2018-07-28T01:49:32.072Z,24.67
2018-07-28T01:50:03.147Z,27.67
2018-07-28T01:50:34.270Z,26.27
2018-07-28T01:51:05.428Z,25.47
2018-07-28T01:51:36.689Z,27.53
2018-07-28T01:52:07.807Z,25.60
2018-07-28T01:52:38.980Z,26.87
2018-07-28T01:53:10.114Z,24.60
2018-07-28T01:53:41.338Z,23.73
2018-07-28T01:54:12.508Z,26.27
2018-07-28T01:54:43.691Z,23.87
2018-07-28T01:55:14.811Z,26.13
2018-07-28T01:55:45.933Z,24.17
2018-07-28T01:56:17.163Z,23.17
2018-07-28T01:56:48.394Z,23.53
2018-07-28T01:57:19.629Z,23.90
2018-07-28T01:57:50.813Z,23.97
2018-07-28T01:58:21.931Z,23.30
2018-07-28T01:58:53.104Z,23.17
2018-07-28T01:59:24.231Z,24.70
2018-07-28T01:59:55.412Z,24.23
2018-07-28T02:00:26.525Z,24.70
2018-07-28T02:00:57.700Z,25.30
2018-07-28T02:01:28.864Z,24.60
2018-07-28T02:02:00.040Z,25.23
2018-07-28T02:02:31.220Z,25.50
2018-07-28T02:03:02.496Z,24.93
2018-07-28T02:03:33.652Z,24.87
2018-07-28T02:04:04.814Z,25.80
2018-07-28T02:04:35.993Z,24.50
2018-07-28T02:05:07.162Z,25.77
2018-07-28T02:05:38.292Z,25.00
2018-07-28T02:06:09.469Z,26.47
2018-07-28T02:06:40.586Z,25.67
2018-07-28T02:07:11.696Z,25.17
2018-07-28T02:07:42.931Z,24.77
2018-07-28T02:08:14.150Z,25.50
2018-07-28T02:08:45.332Z,24.93
2018-07-28T02:09:16.448Z,24.83
2018-07-28T02:09:47.621Z,23.60
2018-07-28T02:10:18.853Z,24.20
2018-07-28T02:10:49.969Z,24.47
2018-07-28T02:11:21.087Z,24.67
2018-07-28T02:11:52.206Z,24.07
2018-07-28T02:12:23.389Z,25.93
2018-07-28T02:12:54.655Z,22.13
2018-07-28T02:13:25.897Z,23.33
2018-07-28T02:13:57.097Z,26.07
2018-07-28T02:14:28.210Z,25.53
2018-07-28T02:14:59.316Z,24.43
2018-07-28T02:15:30.479Z,25.00
2018-07-28T02:16:01.687Z,24.33
2018-07-28T02:16:32.799Z,26.97
2018-07-28T02:17:03.956Z,26.57
2018-07-28T02:17:35.079Z,26.67
2018-07-28T02:18:06.300Z,25.10
2018-07-28T02:18:37.516Z,22.93
2018-07-28T02:19:08.630Z,26.47
2018-07-28T02:19:39.804Z,23.00
2018-07-28T02:20:10.915Z,24.73
2018-07-28T02:20:42.084Z,26.83
2018-07-28T02:21:13.244Z,26.57
2018-07-28T02:21:44.511Z,24.63
2018-07-28T02:22:15.679Z,27.43
2018-07-28T02:22:46.852Z,25.47
2018-07-28T02:23:18.023Z,25.10
2018-07-28T02:23:49.256Z,27.17
2018-07-28T02:24:20.435Z,25.47
2018-07-28T02:24:51.543Z,23.37
2018-07-28T02:25:22.651Z,25.00
2018-07-28T02:25:53.769Z,26.13
2018-07-28T02:26:24.920Z,24.00
2018-07-28T02:26:56.025Z,26.00
2018-07-28T02:27:27.196Z,26.23
2018-07-28T02:27:58.376Z,26.47
2018-07-28T02:28:29.495Z,23.80
2018-07-28T02:29:00.669Z,26.10
2018-07-28T02:29:31.879Z,25.80
2018-07-28T02:30:03.062Z,25.07
2018-07-28T02:30:34.182Z,26.30
2018-07-28T02:31:05.345Z,26.10
2018-07-28T02:31:36.525Z,26.43
2018-07-28T02:32:07.691Z,24.77
2018-07-28T02:32:38.918Z,24.83
2018-07-28T02:33:10.096Z,26.63
2018-07-28T02:33:41.230Z,26.47
2018-07-28T02:34:12.448Z,24.80
2018-07-28T02:34:43.640Z,25.97
2018-07-28T02:35:14.800Z,25.57
2018-07-28T02:35:45.924Z,27.07
2018-07-28T02:36:17.071Z,28.67
2018-07-28T02:36:48.185Z,28.20
2018-07-28T02:37:19.300Z,28.53
2018-07-28T02:37:50.468Z,28.87
2018-07-28T02:38:21.589Z,29.10
2018-07-28T02:38:52.706Z,29.33
2018-07-28T02:39:23.940Z,27.37
2018-07-28T02:39:55.060Z,27.13
2018-07-28T02:40:26.176Z,27.67
2018-07-28T02:40:57.324Z,30.07
2018-07-28T02:41:28.485Z,29.93
2018-07-28T02:41:59.606Z,28.83
2018-07-28T02:42:30.789Z,25.80
2018-07-28T02:43:01.900Z,25.80
2018-07-28T02:43:33.116Z,25.50
2018-07-28T02:44:04.289Z,26.73
2018-07-28T02:44:35.473Z,25.77
2018-07-28T02:45:06.592Z,26.47
2018-07-28T02:45:37.743Z,25.67
2018-07-28T02:46:08.869Z,25.43
2018-07-28T02:46:40.056Z,23.70
2018-07-28T02:47:11.232Z,24.83
2018-07-28T02:47:42.366Z,26.93
2018-07-28T02:48:13.493Z,25.77
2018-07-28T02:48:44.658Z,25.40
2018-07-28T02:49:15.824Z,25.77
2018-07-28T02:49:46.997Z,25.67
2018-07-28T02:50:18.123Z,27.50
2018-07-28T02:50:49.321Z,23.30
2018-07-28T02:51:20.488Z,21.20
2018-07-28T02:51:51.771Z,23.57
2018-07-28T02:52:22.893Z,23.50
2018-07-28T02:52:54.092Z,24.37
2018-07-28T02:53:25.204Z,23.27
2018-07-28T02:53:56.364Z,20.77
2018-07-28T02:54:27.530Z,20.83
2018-07-28T02:54:58.712Z,22.23
2018-07-28T02:55:29.976Z,21.50
2018-07-28T02:56:01.154Z,19.57
2018-07-28T02:56:32.284Z,18.50
2018-07-28T02:57:03.427Z,19.83
2018-07-28T02:57:34.599Z,17.93
2018-07-28T02:58:05.816Z,19.30
2018-07-28T02:58:36.964Z,21.70
2018-07-28T02:59:08.075Z,21.40
2018-07-28T02:59:39.187Z,20.17
2018-07-28T03:00:10.419Z,23.15
2018-07-28T03:00:41.563Z,23.70
2018-07-28T03:01:12.684Z,21.53
2018-07-28T03:01:43.794Z,20.37
2018-07-28T03:02:14.965Z,23.60
2018-07-28T03:02:46.088Z,21.67
2018-07-28T03:03:17.313Z,20.60
2018-07-28T03:03:48.424Z,19.17
2018-07-28T03:04:19.592Z,18.87
2018-07-28T03:04:51.613Z,18.27
2018-07-28T03:05:22.784Z,19.93
2018-07-28T03:05:53.973Z,19.70
2018-07-28T03:06:25.140Z,20.23
2018-07-28T03:06:56.264Z,20.33
2018-07-28T03:07:27.372Z,20.43
2018-07-28T03:07:58.593Z,22.27
2018-07-28T03:08:29.818Z,22.00
2018-07-28T03:09:00.984Z,21.37
2018-07-28T03:09:32.167Z,20.40
2018-07-28T03:10:03.338Z,22.32
2018-07-28T03:10:34.495Z,19.27
2018-07-28T03:11:05.673Z,21.70
2018-07-28T03:11:36.840Z,20.57
2018-07-28T03:12:07.950Z,21.10
2018-07-28T03:12:39.064Z,21.43
2018-07-28T03:13:10.346Z,17.83
2018-07-28T03:13:41.524Z,18.40
2018-07-28T03:14:12.701Z,18.80
2018-07-28T03:14:43.862Z,20.10
2018-07-28T03:15:14.999Z,20.63
2018-07-28T03:15:46.137Z,19.10
2018-07-28T03:16:17.256Z,18.23
2018-07-28T03:16:48.360Z,17.27
2018-07-28T03:17:19.534Z,19.13
2018-07-28T03:17:50.717Z,18.50
2018-07-28T03:18:21.832Z,21.10
2018-07-28T03:18:52.984Z,21.03
2018-07-28T03:19:24.209Z,21.03
2018-07-28T03:19:55.380Z,19.77
2018-07-28T03:20:26.613Z,18.43
2018-07-28T03:20:57.842Z,19.73
2018-07-28T03:21:29.053Z,19.37
2018-07-28T03:22:00.232Z,21.53
2018-07-28T03:22:31.397Z,21.03
2018-07-28T03:23:02.569Z,21.40
2018-07-28T03:23:33.816Z,21.03
2018-07-28T03:24:05.036Z,21.07
2018-07-28T03:24:36.218Z,20.07
2018-07-28T03:25:07.337Z,20.60
2018-07-28T03:25:38.447Z,21.07
2018-07-28T03:26:09.632Z,21.40
2018-07-28T03:26:40.762Z,21.83
2018-07-28T03:27:11.997Z,22.63
2018-07-28T03:27:43.127Z,24.43
2018-07-28T03:28:14.301Z,23.17
2018-07-28T03:28:45.421Z,22.63
2018-07-28T03:29:16.577Z,21.00
2018-07-28T03:29:47.744Z,21.83
2018-07-28T03:30:18.916Z,21.70
2018-07-28T03:30:50.035Z,21.00
2018-07-28T03:31:21.142Z,22.00
2018-07-28T03:31:52.308Z,20.03
2018-07-28T03:32:23.487Z,20.47
2018-07-28T03:32:54.643Z,20.63
2018-07-28T03:33:25.820Z,19.60
2018-07-28T03:33:56.931Z,21.03
2018-07-28T03:34:28.149Z,19.33
2018-07-28T03:34:59.363Z,18.00
2018-07-28T03:35:30.536Z,17.50
2018-07-28T03:36:01.708Z,16.83
2018-07-28T03:36:32.816Z,15.57
2018-07-28T03:37:03.953Z,15.57
2018-07-28T03:37:35.071Z,16.10
2018-07-28T03:38:06.254Z,15.33
2018-07-28T03:38:37.368Z,16.03
2018-07-28T03:39:08.522Z,15.37
2018-07-28T03:39:39.685Z,15.63
2018-07-28T03:40:10.792Z,15.50
2018-07-28T03:40:41.903Z,16.97
2018-07-28T03:41:13.081Z,16.87
2018-07-28T03:41:44.187Z,16.87
2018-07-28T03:42:15.351Z,17.67
2018-07-28T03:42:46.576Z,17.30
2018-07-28T03:43:17.741Z,15.43
2018-07-28T03:43:48.976Z,16.37
2018-07-28T03:44:20.126Z,16.70
2018-07-28T03:44:51.337Z,17.80
2018-07-28T03:45:22.467Z,16.03
2018-07-28T03:45:53.632Z,16.27
2018-07-28T03:46:24.813Z,16.13
2018-07-28T03:46:55.958Z,16.13
2018-07-28T03:47:27.063Z,16.73
2018-07-28T03:47:58.259Z,15.30
2018-07-28T03:48:29.413Z,15.63
2018-07-28T03:49:00.752Z,15.80
2018-07-28T03:49:31.886Z,15.37
2018-07-28T03:50:03.002Z,15.37
2018-07-28T03:50:34.216Z,16.13
2018-07-28T03:51:05.651Z,15.43
2018-07-28T03:51:36.817Z,14.87
2018-07-28T03:52:08.008Z,13.93
2018-07-28T03:52:39.123Z,14.47
2018-07-28T03:53:10.345Z,14.80
2018-07-28T03:53:41.577Z,14.00
2018-07-28T03:54:12.762Z,12.73
2018-07-28T03:54:43.919Z,13.33
2018-07-28T03:55:15.085Z,14.07
2018-07-28T03:55:46.239Z,13.27
2018-07-28T03:56:17.408Z,14.03
2018-07-28T03:56:48.534Z,15.40
2018-07-28T03:57:19.729Z,13.70
2018-07-28T03:57:50.959Z,13.53
2018-07-28T03:58:22.083Z,12.57
2018-07-28T03:58:53.208Z,12.83
2018-07-28T03:59:24.374Z,12.80
2018-07-28T03:59:55.592Z,12.80
2018-07-28T04:00:26.776Z,12.80
2018-07-28T04:00:57.983Z,11.97
2018-07-28T04:01:29.099Z,12.13
2018-07-28T04:02:00.206Z,12.43
2018-07-28T04:02:31.424Z,11.33
2018-07-28T04:03:02.591Z,10.93
2018-07-28T04:03:33.708Z,12.10
2018-07-28T04:04:04.911Z,11.73
2018-07-28T04:04:36.004Z,11.97
2018-07-28T04:05:07.192Z,12.67
2018-07-28T04:05:38.336Z,12.23
2018-07-28T04:06:09.504Z,12.60
2018-07-28T04:06:40.712Z,12.87
2018-07-28T04:07:11.882Z,13.10
2018-07-28T04:07:43.100Z,12.60
2018-07-28T04:08:14.212Z,13.10
2018-07-28T04:08:45.424Z,12.60
2018-07-28T04:09:16.551Z,12.97
2018-07-28T04:09:47.671Z,12.90
2018-07-28T04:10:18.808Z,13.03
2018-07-28T04:10:49.989Z,12.97
2018-07-28T04:11:21.176Z,12.47
2018-07-28T04:11:52.358Z,12.50
2018-07-28T04:12:23.538Z,13.30
2018-07-28T04:12:54.732Z,11.97
2018-07-28T04:13:25.848Z,12.30
2018-07-28T04:13:57.105Z,11.90
2018-07-28T04:14:28.272Z,12.73
2018-07-28T04:14:59.379Z,12.70
2018-07-28T04:15:30.508Z,12.77
2018-07-28T04:16:01.623Z,12.53
2018-07-28T04:16:32.802Z,11.10
2018-07-28T04:17:03.924Z,11.10
2018-07-28T04:17:35.041Z,12.73
2018-07-28T04:18:06.272Z,12.30
2018-07-28T04:18:37.505Z,12.37
2018-07-28T04:19:08.760Z,12.77
2018-07-28T04:19:39.923Z,12.47
2018-07-28T04:20:11.104Z,11.17
2018-07-28T04:20:42.340Z,12.50
2018-07-28T04:21:13.467Z,11.30
2018-07-28T04:21:44.645Z,12.10
2018-07-28T04:22:15.890Z,11.37
2018-07-28T04:22:47.072Z,12.23
2018-07-28T04:23:18.268Z,12.90
2018-07-28T04:23:49.509Z,12.27
2018-07-28T04:24:20.733Z,11.63
2018-07-28T04:24:51.859Z,12.03
2018-07-28T04:25:23.004Z,11.27
2018-07-28T04:25:54.239Z,11.40
2018-07-28T04:26:25.360Z,11.17
2018-07-28T04:26:56.597Z,11.90
2018-07-28T04:27:27.763Z,11.30
2018-07-28T04:27:58.928Z,10.93
2018-07-28T04:28:30.148Z,11.00
2018-07-28T04:29:01.263Z,10.33
2018-07-28T04:29:32.448Z,10.33
2018-07-28T04:30:03.841Z,11.23
2018-07-28T04:30:35.031Z,9.97
2018-07-28T04:31:06.155Z,10.13
2018-07-28T04:31:37.274Z,11.30
2018-07-28T04:32:08.451Z,11.57
2018-07-28T04:32:39.632Z,10.63
2018-07-28T04:33:10.825Z,11.20
2018-07-28T04:33:42.043Z,10.63
2018-07-28T04:34:13.167Z,10.57
2018-07-28T04:34:44.337Z,9.70
2018-07-28T04:35:15.526Z,10.00
2018-07-28T04:35:46.992Z,11.73
2018-07-28T04:36:18.324Z,10.27
2018-07-28T04:36:49.564Z,10.10
2018-07-28T04:37:20.695Z,11.43
2018-07-28T04:37:52.099Z,10.00
2018-07-28T04:38:23.437Z,10.53
2018-07-28T04:38:54.716Z,11.53
2018-07-28T04:39:26.004Z,10.60
2018-07-28T04:39:57.239Z,10.80
2018-07-28T04:40:28.359Z,10.27
2018-07-28T04:40:59.615Z,10.80
2018-07-28T04:41:30.791Z,10.37
2018-07-28T04:42:01.944Z,10.30
2018-07-28T04:42:33.062Z,9.83
2018-07-28T04:43:04.271Z,10.80
2018-07-28T04:43:35.466Z,11.30
2018-07-28T04:44:06.683Z,10.27
2018-07-28T04:44:37.788Z,11.20
2018-07-28T04:45:08.912Z,10.70
2018-07-28T04:45:40.256Z,11.57
2018-07-28T04:46:11.436Z,10.10
2018-07-28T04:46:42.576Z,10.13
2018-07-28T04:47:13.902Z,10.73
2018-07-28T04:47:45.040Z,10.30
2018-07-28T04:48:16.262Z,9.87
2018-07-28T04:48:47.397Z,9.87
2018-07-28T04:49:18.524Z,9.63
2018-07-28T04:49:49.641Z,10.07
2018-07-28T04:50:20.764Z,9.53
2018-07-28T04:50:52.012Z,9.77
2018-07-28T04:51:23.121Z,10.50
2018-07-28T04:51:54.433Z,9.77
2018-07-28T04:52:25.600Z,9.50
2018-07-28T04:52:56.859Z,11.23
2018-07-28T04:53:28.020Z,11.03
2018-07-28T04:53:59.204Z,11.13
2018-07-28T04:54:30.492Z,9.57
2018-07-28T04:55:01.699Z,10.73
2018-07-28T04:55:32.872Z,10.03
2018-07-28T04:56:04.053Z,10.00
2018-07-28T04:56:35.180Z,10.00
2018-07-28T04:57:06.305Z,11.13
2018-07-28T04:57:37.420Z,10.10
2018-07-28T04:58:08.575Z,11.27
2018-07-28T04:58:39.749Z,10.43
2018-07-28T04:59:10.925Z,10.60
2018-07-28T04:59:42.137Z,10.30
2018-07-28T05:00:13.272Z,11.00
2018-07-28T05:00:44.450Z,10.43
2018-07-28T05:01:15.604Z,10.87
2018-07-28T05:01:46.809Z,10.03
2018-07-28T05:02:18.074Z,10.40
2018-07-28T05:02:49.249Z,10.80
2018-07-28T05:03:20.424Z,10.50
2018-07-28T05:03:51.593Z,10.72
2018-07-28T05:04:22.772Z,10.57
2018-07-28T05:04:53.878Z,10.32
2018-07-28T05:05:25.054Z,11.22
2018-07-28T05:05:56.275Z,10.28
2018-07-28T05:06:27.504Z,10.20
2018-07-28T05:06:58.619Z,10.35
2018-07-28T05:07:29.900Z,10.03
2018-07-28T05:08:00.952Z,9.53
2018-07-28T05:08:32.116Z,9.30
2018-07-28T05:09:03.345Z,9.33
2018-07-28T05:09:34.520Z,10.25
2018-07-28T05:10:05.726Z,9.33
2018-07-28T05:10:36.835Z,9.58
2018-07-28T05:11:08.045Z,10.40
2018-07-28T05:11:39.296Z,10.53
2018-07-28T05:12:10.428Z,10.53
2018-07-28T05:12:41.658Z,10.60
2018-07-28T05:13:12.879Z,9.30
2018-07-28T05:13:44.004Z,11.10
2018-07-28T05:14:15.232Z,10.60
2018-07-28T05:14:46.575Z,10.50
2018-07-28T05:15:17.763Z,10.60
2018-07-28T05:15:49.021Z,10.68
2018-07-28T05:16:20.250Z,9.58
2018-07-28T05:16:51.579Z,11.57
2018-07-28T05:17:22.757Z,9.10
2018-07-28T05:17:54.696Z,10.45
2018-07-28T05:18:25.812Z,10.63
2018-07-28T05:18:56.993Z,9.80
2018-07-28T05:19:28.109Z,10.32
2018-07-28T05:19:59.234Z,10.85
2018-07-28T05:20:30.410Z,10.50
2018-07-28T05:21:01.525Z,9.83
2018-07-28T05:21:32.675Z,9.30
2018-07-28T05:22:03.792Z,9.80
2018-07-28T05:22:34.907Z,9.35
2018-07-28T05:23:06.032Z,10.32
2018-07-28T05:23:37.162Z,9.58
2018-07-28T05:24:08.283Z,10.08
2018-07-28T05:24:39.455Z,10.10
2018-07-28T05:25:10.641Z,9.55
2018-07-28T05:25:41.932Z,10.63
2018-07-28T05:26:13.058Z,10.05
2018-07-28T05:26:44.227Z,9.80
2018-07-28T05:27:15.400Z,9.08
2018-07-28T05:27:46.537Z,9.98
2018-07-28T05:28:17.837Z,12.63
2018-07-28T05:28:49.105Z,9.63
2018-07-28T05:29:20.448Z,9.73
2018-07-28T05:29:51.565Z,9.60
2018-07-28T05:30:22.815Z,9.58
2018-07-28T05:30:54.075Z,9.43
2018-07-28T05:31:25.204Z,10.25
2018-07-28T05:31:56.566Z,9.80
2018-07-28T05:32:27.786Z,9.90
2018-07-28T05:32:58.911Z,10.65
2018-07-28T05:33:30.083Z,9.95
2018-07-28T05:34:01.209Z,9.20
2018-07-28T05:34:32.320Z,9.70
2018-07-28T05:35:03.487Z,10.55
2018-07-28T05:35:34.615Z,10.15
2018-07-28T05:36:05.767Z,9.68
2018-07-28T05:36:36.929Z,9.73
2018-07-28T05:37:08.148Z,10.35
2018-07-28T05:37:39.263Z,9.65
2018-07-28T05:38:10.439Z,9.73
2018-07-28T05:38:42.444Z,9.83
2018-07-28T05:39:13.737Z,10.55
2018-07-28T05:39:44.870Z,9.95
2018-07-28T05:40:16.056Z,10.20
2018-07-28T05:40:47.191Z,10.43
2018-07-28T05:41:18.365Z,10.08
2018-07-28T05:41:49.540Z,10.43
2018-07-28T05:42:20.837Z,11.22
2018-07-28T05:42:51.962Z,11.03
2018-07-28T05:43:23.170Z,11.00
2018-07-28T05:43:54.360Z,10.45
2018-07-28T05:44:25.576Z,10.98
2018-07-28T05:44:56.705Z,10.82
2018-07-28T05:45:27.936Z,11.12
2018-07-28T05:45:59.115Z,11.43
2018-07-28T05:46:30.300Z,10.75
2018-07-28T05:47:01.423Z,10.63
2018-07-28T05:47:32.649Z,10.15
2018-07-28T05:48:03.881Z,10.32
2018-07-28T05:48:35.012Z,10.95
2018-07-28T05:49:06.270Z,10.98
2018-07-28T05:49:37.406Z,11.30
2018-07-28T05:50:08.551Z,10.80
2018-07-28T05:50:39.731Z,12.75
2018-07-28T05:51:10.908Z,11.73
2018-07-28T05:51:42.096Z,11.50
2018-07-28T05:52:13.264Z,11.45
2018-07-28T05:52:44.423Z,11.55
2018-07-28T05:53:15.605Z,10.75
2018-07-28T05:53:46.784Z,11.18
2018-07-28T05:54:17.969Z,11.03
2018-07-28T05:54:49.139Z,11.57
2018-07-28T05:55:20.352Z,10.95
2018-07-28T05:55:51.461Z,11.65
2018-07-28T05:56:22.633Z,11.85
2018-07-28T05:56:53.805Z,11.12
2018-07-28T05:57:24.929Z,10.95
2018-07-28T05:57:56.055Z,11.50
2018-07-28T05:58:27.235Z,10.82
2018-07-28T05:58:58.439Z,11.90
2018-07-28T05:59:29.636Z,11.10
2018-07-28T06:00:00.847Z,10.23
2018-07-28T06:00:31.976Z,10.65
2018-07-28T06:01:03.154Z,11.55
2018-07-28T06:01:34.276Z,11.45
2018-07-28T06:02:05.510Z,11.65
2018-07-28T06:02:36.708Z,10.82
2018-07-28T06:03:07.883Z,10.88
2018-07-28T06:03:39.008Z,9.93
2018-07-28T06:04:10.271Z,11.12
2018-07-28T06:04:41.448Z,10.85
2018-07-28T06:05:12.718Z,9.93
2018-07-28T06:05:43.971Z,11.35
2018-07-28T06:06:15.105Z,11.35
2018-07-28T06:06:46.273Z,10.78
2018-07-28T06:07:17.538Z,11.05
2018-07-28T06:07:48.727Z,10.05
2018-07-28T06:08:19.912Z,10.40
2018-07-28T06:08:51.144Z,11.60
2018-07-28T06:09:22.329Z,10.82
2018-07-28T06:09:53.597Z,11.20
2018-07-28T06:10:24.796Z,10.95
2018-07-28T06:10:56.084Z,11.33
2018-07-28T06:11:27.455Z,11.75
2018-07-28T06:11:58.684Z,12.10
2018-07-28T06:12:29.969Z,12.45
2018-07-28T06:13:01.218Z,11.08
2018-07-28T06:13:32.403Z,12.07
2018-07-28T06:14:03.603Z,11.88
2018-07-28T06:14:34.775Z,11.85
2018-07-28T06:15:05.976Z,11.68
2018-07-28T06:15:37.210Z,11.60
2018-07-28T06:16:08.338Z,12.07
2018-07-28T06:16:39.504Z,12.70
2018-07-28T06:17:10.740Z,11.18
2018-07-28T06:17:41.904Z,10.35
2018-07-28T06:18:13.017Z,10.48
2018-07-28T06:18:44.200Z,11.60
2018-07-28T06:19:15.373Z,10.95
2018-07-28T06:19:46.561Z,11.68
2018-07-28T06:20:17.795Z,10.63
2018-07-28T06:20:48.981Z,12.00
2018-07-28T06:21:20.258Z,10.88
2018-07-28T06:21:51.493Z,10.90
2018-07-28T06:22:22.655Z,11.57
2018-07-28T06:22:53.841Z,11.35
2018-07-28T06:23:25.065Z,10.23
2018-07-28T06:23:56.356Z,11.88
2018-07-28T06:24:27.506Z,10.28
2018-07-28T06:24:58.711Z,10.15
2018-07-28T06:25:29.913Z,10.35
2018-07-28T06:26:01.119Z,10.75
2018-07-28T06:26:32.243Z,9.90
2018-07-28T06:27:03.417Z,10.70
2018-07-28T06:27:34.535Z,9.40
2018-07-28T06:28:05.716Z,10.53
2018-07-28T06:28:36.840Z,10.08
2018-07-28T06:29:07.959Z,9.88
2018-07-28T06:29:39.120Z,9.65
2018-07-28T06:30:10.401Z,9.85
2018-07-28T06:30:41.594Z,10.58
2018-07-28T06:31:12.730Z,9.93
2018-07-28T06:31:44.028Z,10.70
2018-07-28T06:32:15.188Z,10.23
2018-07-28T06:32:46.365Z,10.80
2018-07-28T06:33:17.546Z,10.55
2018-07-28T06:33:48.736Z,10.30
2018-07-28T06:34:19.955Z,10.03
2018-07-28T06:34:51.136Z,11.08
2018-07-28T06:35:22.547Z,10.18
2018-07-28T06:35:53.805Z,10.03
2018-07-28T06:36:25.002Z,9.93
2018-07-28T06:36:56.308Z,9.90
2018-07-28T06:37:27.528Z,10.15
2018-07-28T06:37:58.649Z,10.18
2018-07-28T06:38:29.842Z,9.53
2018-07-28T06:39:01.092Z,10.15
2018-07-28T06:39:32.229Z,9.90
2018-07-28T06:40:03.396Z,9.68
2018-07-28T06:40:34.585Z,9.65
2018-07-28T06:41:05.796Z,9.10
2018-07-28T06:41:37.061Z,10.10
2018-07-28T06:42:08.256Z,9.60
2018-07-28T06:42:39.380Z,9.95